createdAt,value
2018-09-29T00:00:41.220Z,12.50
2018-09-29T00:03:08.512Z,12.40
2018-09-29T00:05:35.813Z,12.50
2018-09-29T00:08:03.169Z,12.40
2018-09-29T00:10:30.401Z,12.30
2018-09-29T00:12:57.746Z,12.30
2018-09-29T00:15:24.978Z,12.20
2018-09-29T00:17:52.537Z,12.20
2018-09-29T00:20:19.773Z,12.20
2018-09-29T00:22:47.001Z,12.30
2018-09-29T00:25:14.294Z,12.20
2018-09-29T00:27:41.548Z,12.30
2018-09-29T00:30:08.821Z,12.30
2018-09-29T00:32:36.059Z,12.20
2018-09-29T00:35:04.328Z,12.00
2018-09-29T00:37:31.548Z,12.10
2018-09-29T00:39:58.792Z,12.00
2018-09-29T00:42:26.264Z,12.00
2018-09-29T00:44:53.512Z,12.00
2018-09-29T00:47:20.772Z,12.00
2018-09-29T00:49:48.013Z,11.90
2018-09-29T00:52:15.216Z,11.90
2018-09-29T00:54:42.464Z,11.70
2018-09-29T00:57:09.701Z,11.60
2018-09-29T00:59:36.913Z,11.50
2018-09-29T01:02:04.165Z,12.30
2018-09-29T01:04:32.324Z,11.10
2018-09-29T01:06:59.582Z,11.30
2018-09-29T01:09:26.895Z,11.40
2018-09-29T01:11:54.144Z,11.30
2018-09-29T01:14:21.368Z,11.30
2018-09-29T01:16:48.612Z,11.30
2018-09-29T01:19:15.912Z,11.30
2018-09-29T01:21:43.155Z,11.40
2018-09-29T01:24:10.372Z,11.40
2018-09-29T01:26:38.604Z,11.40
2018-09-29T01:29:05.829Z,11.50
2018-09-29T01:31:33.040Z,11.30
2018-09-29T01:34:00.354Z,11.30
2018-09-29T01:36:27.588Z,11.30
2018-09-29T01:38:54.816Z,11.40
2018-09-29T01:41:22.126Z,11.40
2018-09-29T01:43:49.400Z,11.30
2018-09-29T01:46:16.680Z,11.50
2018-09-29T01:48:43.956Z,11.40
2018-09-29T01:51:11.193Z,11.40
2018-09-29T01:53:38.452Z,10.70
2018-09-29T01:56:05.699Z,11.30
2018-09-29T01:58:32.933Z,11.20
2018-09-29T02:01:00.208Z,11.20
2018-09-29T02:03:27.469Z,11.20
2018-09-29T02:05:54.717Z,11.00
2018-09-29T02:08:21.968Z,11.10
2018-09-29T02:10:49.324Z,11.00
2018-09-29T02:13:16.618Z,10.80
2018-09-29T02:15:43.858Z,10.60
2018-09-29T02:18:11.085Z,10.70
2018-09-29T02:20:38.308Z,10.70
2018-09-29T02:23:05.580Z,10.70
2018-09-29T02:25:32.809Z,10.70
2018-09-29T02:28:00.065Z,10.70
2018-09-29T02:30:27.332Z,10.60
2018-09-29T02:32:54.559Z,10.60
2018-09-29T02:35:21.823Z,10.50
2018-09-29T02:37:49.041Z,10.50
2018-09-29T02:40:16.320Z,10.40
2018-09-29T02:42:43.643Z,10.40
2018-09-29T02:45:10.920Z,10.30
2018-09-29T02:47:38.187Z,10.20
2018-09-29T02:50:05.693Z,10.10
2018-09-29T02:52:32.928Z,10.10
2018-09-29T02:55:00.404Z,10.10
2018-09-29T02:57:27.993Z,10.10
2018-09-29T02:59:55.232Z,10.10
2018-09-29T03:02:22.468Z,10.10
2018-09-29T03:04:49.696Z,10.20
2018-09-29T03:07:17.026Z,10.10
2018-09-29T03:09:44.222Z,10.10
2018-09-29T03:12:11.493Z,10.10
2018-09-29T03:14:38.752Z,10.10
2018-09-29T03:17:06.102Z,10.00
2018-09-29T03:19:33.340Z,10.00
2018-09-29T03:22:00.672Z,10.10
2018-09-29T03:24:27.920Z,10.10
2018-09-29T03:26:55.160Z,10.10
2018-09-29T03:29:22.410Z,10.20
2018-09-29T03:31:49.791Z,10.20
2018-09-29T03:34:16.931Z,12.30
2018-09-29T03:36:44.198Z,10.30
2018-09-29T03:39:12.204Z,10.40
2018-09-29T03:41:39.799Z,10.40
2018-09-29T03:44:07.417Z,10.40
2018-09-29T03:46:34.653Z,10.60
2018-09-29T03:49:01.944Z,10.50
2018-09-29T03:51:29.243Z,10.50
2018-09-29T03:53:56.455Z,10.50
2018-09-29T03:56:23.707Z,10.50
2018-09-29T03:58:50.951Z,10.60
2018-09-29T04:01:18.260Z,10.60
2018-09-29T04:03:45.536Z,10.60
2018-09-29T04:06:12.789Z,10.60
2018-09-29T04:08:40.049Z,10.40
2018-09-29T04:11:07.275Z,10.40
2018-09-29T04:13:34.525Z,10.40
2018-09-29T04:16:01.788Z,10.40
2018-09-29T04:18:29.069Z,10.40
2018-09-29T04:20:56.416Z,10.30
2018-09-29T04:23:23.637Z,10.20
2018-09-29T04:25:50.877Z,10.30
2018-09-29T04:28:18.220Z,10.20
2018-09-29T04:30:45.447Z,10.30
2018-09-29T04:33:12.868Z,10.40
2018-09-29T04:35:40.097Z,10.40
2018-09-29T04:38:07.381Z,10.50
2018-09-29T04:40:34.657Z,10.40
2018-09-29T04:43:01.932Z,10.40
2018-09-29T04:45:29.173Z,10.40
2018-09-29T04:47:56.423Z,10.40
2018-09-29T04:50:23.665Z,10.30
2018-09-29T04:52:51.297Z,10.20
2018-09-29T04:55:18.559Z,10.20
2018-09-29T04:57:45.788Z,10.10
2018-09-29T05:00:13.056Z,10.10
2018-09-29T05:02:40.304Z,10.10
2018-09-29T05:05:07.547Z,10.10
2018-09-29T05:07:34.798Z,10.00
2018-09-29T05:10:02.104Z,10.00
2018-09-29T05:12:30.384Z,9.90
2018-09-29T05:14:57.647Z,10.00
2018-09-29T05:17:24.938Z,10.00
2018-09-29T05:19:52.159Z,10.10
2018-09-29T05:22:19.435Z,10.00
2018-09-29T05:24:46.708Z,10.10
2018-09-29T05:27:13.956Z,10.20
2018-09-29T05:29:41.196Z,10.20
2018-09-29T05:32:08.476Z,10.30
2018-09-29T05:34:35.732Z,10.20
2018-09-29T05:37:03.010Z,10.20
2018-09-29T05:39:30.276Z,10.10
2018-09-29T05:41:57.532Z,10.10
2018-09-29T05:44:24.792Z,9.90
2018-09-29T05:46:52.024Z,9.90
2018-09-29T05:49:19.276Z,10.00
2018-09-29T05:51:47.042Z,10.10
2018-09-29T05:54:14.291Z,10.10
2018-09-29T05:56:41.564Z,10.40
2018-09-29T05:59:08.809Z,10.20
2018-09-29T06:01:36.063Z,10.30
2018-09-29T06:04:03.325Z,10.20
2018-09-29T06:06:31.540Z,10.20
2018-09-29T06:08:59.995Z,10.20
2018-09-29T06:11:27.378Z,10.20
2018-09-29T06:13:54.960Z,10.20
2018-09-29T06:16:22.521Z,10.10
2018-09-29T06:18:49.738Z,10.10
2018-09-29T06:21:17.611Z,10.00
2018-09-29T06:23:44.875Z,10.00
2018-09-29T06:26:12.141Z,10.10
2018-09-29T06:28:39.369Z,10.20
2018-09-29T06:31:06.648Z,10.30
2018-09-29T06:33:33.872Z,10.40
2018-09-29T06:36:01.221Z,10.40
2018-09-29T06:38:28.465Z,10.30
2018-09-29T06:40:55.779Z,10.40
2018-09-29T06:43:22.996Z,10.30
2018-09-29T06:45:50.309Z,10.50
2018-09-29T06:48:17.578Z,10.60
2018-09-29T06:50:44.854Z,10.50
2018-09-29T06:53:12.080Z,10.60
2018-09-29T06:55:39.353Z,10.70
2018-09-29T06:58:07.896Z,11.00
2018-09-29T07:00:35.148Z,10.90
2018-09-29T07:03:02.467Z,10.80
2018-09-29T07:05:29.676Z,11.00
2018-09-29T07:07:56.921Z,11.10
2018-09-29T07:10:24.161Z,11.20
2018-09-29T07:12:51.456Z,11.30
2018-09-29T07:15:18.721Z,11.50
2018-09-29T07:17:45.945Z,11.50
2018-09-29T07:20:13.231Z,11.70
2018-09-29T07:22:40.489Z,11.90
2018-09-29T07:25:07.788Z,11.90
2018-09-29T07:27:35.024Z,12.00
2018-09-29T07:30:02.280Z,12.00
2018-09-29T07:32:29.532Z,12.10
2018-09-29T07:34:56.814Z,12.20
2018-09-29T07:37:24.051Z,12.40
2018-09-29T07:39:51.287Z,12.30
2018-09-29T07:42:18.531Z,12.30
2018-09-29T07:44:45.782Z,12.40
2018-09-29T07:47:13.018Z,12.50
2018-09-29T07:49:40.248Z,12.60
2018-09-29T07:52:07.484Z,12.50
2018-09-29T07:54:34.713Z,12.60
2018-09-29T07:57:01.959Z,12.70
2018-09-29T07:59:29.200Z,12.70
2018-09-29T08:01:56.663Z,12.70
2018-09-29T08:04:24.110Z,12.80
2018-09-29T08:06:51.336Z,12.90
2018-09-29T08:09:18.555Z,12.90
2018-09-29T08:11:45.831Z,13.10
2018-09-29T08:14:13.095Z,13.20
2018-09-29T08:16:40.315Z,13.20
2018-09-29T08:19:07.805Z,13.20
2018-09-29T08:21:35.044Z,13.40
2018-09-29T08:24:02.437Z,13.60
2018-09-29T08:26:29.702Z,13.90
2018-09-29T08:28:56.947Z,14.10
2018-09-29T08:31:24.199Z,14.30
2018-09-29T08:33:51.442Z,14.20
2018-09-29T08:36:18.693Z,14.40
2018-09-29T08:38:45.947Z,14.50
2018-09-29T08:41:13.196Z,14.50
2018-09-29T08:43:40.432Z,14.30
2018-09-29T08:46:07.717Z,14.30
2018-09-29T08:48:34.940Z,14.20
2018-09-29T08:51:02.179Z,14.30
2018-09-29T08:53:30.475Z,14.30
2018-09-29T08:55:57.725Z,14.40
2018-09-29T08:58:24.965Z,14.60
2018-09-29T09:00:52.255Z,14.80
2018-09-29T09:03:19.444Z,15.10
2018-09-29T09:05:46.713Z,15.40
2018-09-29T09:08:14.118Z,15.30
2018-09-29T09:10:41.381Z,15.30
2018-09-29T09:13:09.334Z,15.30
2018-09-29T09:15:36.578Z,15.30
2018-09-29T09:18:03.792Z,15.40
2018-09-29T09:20:31.074Z,15.80
2018-09-29T09:22:58.357Z,16.00
2018-09-29T09:25:25.565Z,16.00
2018-09-29T09:27:52.832Z,16.00
2018-09-29T09:30:20.181Z,16.00
2018-09-29T09:32:47.335Z,16.10
2018-09-29T09:35:14.555Z,16.00
2018-09-29T09:37:41.807Z,15.70
2018-09-29T09:40:09.097Z,15.50
2018-09-29T09:42:36.339Z,15.40
2018-09-29T09:45:03.632Z,15.30
2018-09-29T09:47:30.901Z,15.20
2018-09-29T09:49:58.153Z,15.40
2018-09-29T09:52:25.398Z,15.70
2018-09-29T09:54:52.636Z,16.00
2018-09-29T09:57:19.887Z,16.20
2018-09-29T09:59:47.134Z,16.50
2018-09-29T10:03:19.136Z,16.70
2018-09-29T10:05:46.366Z,16.60
2018-09-29T10:08:13.569Z,16.80
2018-09-29T10:10:40.797Z,16.90
2018-09-29T10:13:08.017Z,17.10
2018-09-29T10:15:35.231Z,17.20
2018-09-29T10:18:02.612Z,17.40
2018-09-29T10:20:29.832Z,17.40
2018-09-29T10:22:57.111Z,17.70
2018-09-29T10:25:24.316Z,17.70
2018-09-29T10:27:51.824Z,18.10
2018-09-29T10:30:19.031Z,18.30
2018-09-29T10:32:46.420Z,18.30
2018-09-29T10:35:13.747Z,18.30
2018-09-29T10:37:40.978Z,18.30
2018-09-29T10:40:08.256Z,18.30
2018-09-29T10:42:35.468Z,18.00
2018-09-29T10:45:02.987Z,17.90
2018-09-29T10:47:30.245Z,17.80
2018-09-29T10:49:57.828Z,17.90
2018-09-29T10:52:25.089Z,17.80
2018-09-29T10:54:52.320Z,17.90
2018-09-29T10:57:19.617Z,17.80
2018-09-29T10:59:46.866Z,17.60
2018-09-29T11:02:14.121Z,17.30
2018-09-29T11:04:41.364Z,17.20
2018-09-29T11:07:08.617Z,17.50
2018-09-29T11:09:35.893Z,17.90
2018-09-29T11:12:03.147Z,17.80
2018-09-29T11:14:31.488Z,17.50
2018-09-29T11:16:58.635Z,17.20
2018-09-29T11:19:25.936Z,17.40
2018-09-29T11:21:53.184Z,17.30
2018-09-29T11:24:20.429Z,17.00
2018-09-29T11:26:47.698Z,16.50
2018-09-29T11:29:14.940Z,16.50
2018-09-29T11:31:42.192Z,16.50
2018-09-29T11:34:09.444Z,16.40
2018-09-29T11:36:36.696Z,16.60
2018-09-29T11:39:07.163Z,16.80
2018-09-29T11:41:34.444Z,16.80
2018-09-29T11:44:01.774Z,17.00
2018-09-29T11:46:29.021Z,17.40
2018-09-29T11:48:56.284Z,17.60
2018-09-29T11:51:23.500Z,17.80
2018-09-29T11:53:50.711Z,17.90
2018-09-29T11:56:18.009Z,17.50
2018-09-29T11:58:45.218Z,17.20
2018-09-29T12:01:12.483Z,17.10
2018-09-29T12:03:39.762Z,17.10
2018-09-29T12:06:07.126Z,17.60
2018-09-29T12:08:34.305Z,17.90
2018-09-29T12:11:01.525Z,18.10
2018-09-29T12:13:28.775Z,18.10
2018-09-29T12:15:56.080Z,18.30
2018-09-29T12:18:23.350Z,18.40
2018-09-29T12:20:50.601Z,18.70
2018-09-29T12:23:17.865Z,19.00
2018-09-29T12:25:45.093Z,19.20
2018-09-29T12:28:12.340Z,19.50
2018-09-29T12:30:39.593Z,19.90
2018-09-29T12:33:06.807Z,20.40
2018-09-29T12:35:34.056Z,20.50
2018-09-29T12:38:01.298Z,20.40
2018-09-29T12:40:28.503Z,20.60
2018-09-29T12:42:55.922Z,21.50
2018-09-29T12:45:23.172Z,21.90
2018-09-29T12:47:50.457Z,22.30
2018-09-29T12:50:17.790Z,22.60
2018-09-29T12:52:44.957Z,22.60
2018-09-29T12:55:12.199Z,23.10
2018-09-29T12:57:39.988Z,23.20
2018-09-29T13:00:07.727Z,23.30
2018-09-29T13:02:35.005Z,23.40
2018-09-29T13:05:02.324Z,23.40
2018-09-29T13:07:29.555Z,23.30
2018-09-29T13:09:56.817Z,23.50
2018-09-29T13:12:24.629Z,24.00
2018-09-29T13:14:51.855Z,24.70
2018-09-29T13:17:19.196Z,24.80
2018-09-29T13:19:46.416Z,24.50
2018-09-29T13:22:13.641Z,25.00
2018-09-29T13:24:40.837Z,25.30
2018-09-29T13:27:08.045Z,25.40
2018-09-29T13:29:35.277Z,25.90
2018-09-29T13:32:02.779Z,25.90
2018-09-29T13:34:29.952Z,25.90
2018-09-29T13:36:57.176Z,25.70
2018-09-29T13:39:24.469Z,26.00
2018-09-29T13:41:51.709Z,26.50
2018-09-29T13:44:18.916Z,26.30
2018-09-29T13:46:46.119Z,26.60
2018-09-29T13:49:13.356Z,26.30
2018-09-29T13:51:40.637Z,26.20
2018-09-29T13:54:07.886Z,26.10
2018-09-29T13:56:35.967Z,26.10
2018-09-29T13:59:03.190Z,25.90
2018-09-29T14:01:30.445Z,26.00
2018-09-29T14:03:57.700Z,26.20
2018-09-29T14:06:25.590Z,26.20
2018-09-29T14:08:52.836Z,25.10
2018-09-29T14:11:20.063Z,24.80
2018-09-29T14:13:47.335Z,25.10
2018-09-29T14:16:14.541Z,25.00
2018-09-29T14:18:41.928Z,25.20
2018-09-29T14:21:09.161Z,25.30
2018-09-29T14:23:36.380Z,25.60
2018-09-29T14:26:03.636Z,26.10
2018-09-29T14:28:30.997Z,26.10
2018-09-29T14:30:58.315Z,25.80
2018-09-29T14:33:25.527Z,26.20
2018-09-29T14:35:53.277Z,26.10
2018-09-29T14:38:20.504Z,25.80
2018-09-29T14:40:47.934Z,25.90
2018-09-29T14:43:15.156Z,25.70
2018-09-29T14:45:42.436Z,25.70
2018-09-29T14:48:09.664Z,25.80
2018-09-29T14:50:36.926Z,25.50
2018-09-29T14:53:04.157Z,25.20
2018-09-29T14:55:31.386Z,25.50
2018-09-29T14:57:58.724Z,25.70
2018-09-29T15:00:25.936Z,25.70
2018-09-29T15:02:53.147Z,25.70
2018-09-29T15:05:20.363Z,25.50
2018-09-29T15:07:47.913Z,25.50
2018-09-29T15:10:15.142Z,25.20
2018-09-29T15:12:42.352Z,24.90
2018-09-29T15:15:09.567Z,24.60
2018-09-29T15:17:36.941Z,24.50
2018-09-29T15:20:04.406Z,24.50
2018-09-29T15:22:31.670Z,24.50
2018-09-29T15:24:58.884Z,24.40
2018-09-29T15:27:26.142Z,24.30
2018-09-29T15:29:53.436Z,24.40
2018-09-29T15:32:20.702Z,24.50
2018-09-29T15:34:47.956Z,24.30
2018-09-29T15:37:15.168Z,24.30
2018-09-29T15:39:42.384Z,24.90
2018-09-29T15:42:09.625Z,24.80
2018-09-29T15:44:37.504Z,24.90
2018-09-29T15:47:04.848Z,24.80
2018-09-29T15:49:32.084Z,24.50
2018-09-29T15:51:59.296Z,24.40
2018-09-29T15:54:27.160Z,24.50
2018-09-29T15:56:54.381Z,24.40
2018-09-29T15:59:21.604Z,24.20
2018-09-29T16:01:48.817Z,24.40
2018-09-29T16:04:16.041Z,24.50
2018-09-29T16:06:43.252Z,24.10
2018-09-29T16:09:10.544Z,24.00
2018-09-29T16:11:38.415Z,23.40
2018-09-29T16:14:05.642Z,22.10
2018-09-29T16:16:32.894Z,20.70
2018-09-29T16:19:00.212Z,19.60
2018-09-29T16:21:27.447Z,18.50
2018-09-29T16:23:54.719Z,17.90
2018-09-29T16:26:21.988Z,17.40
2018-09-29T16:28:49.197Z,17.00
2018-09-29T16:31:16.695Z,16.90
2018-09-29T16:33:43.944Z,17.00
2018-09-29T16:36:11.196Z,16.80
2018-09-29T16:38:38.466Z,16.30
2018-09-29T16:41:06.122Z,15.80
2018-09-29T16:43:33.684Z,15.40
2018-09-29T16:46:00.896Z,14.90
2018-09-29T16:48:28.128Z,14.50
2018-09-29T16:50:55.383Z,14.10
2018-09-29T16:53:22.629Z,13.70
2018-09-29T16:55:49.912Z,13.40
2018-09-29T16:58:17.153Z,13.10
2018-09-29T17:00:44.393Z,12.80
2018-09-29T17:03:11.632Z,12.70
2018-09-29T17:05:38.877Z,12.60
2018-09-29T17:08:06.132Z,12.40
2018-09-29T17:10:33.391Z,12.20
2018-09-29T17:13:00.699Z,12.10
2018-09-29T17:15:27.940Z,12.10
2018-09-29T17:17:55.191Z,12.00
2018-09-29T17:20:22.481Z,11.80
2018-09-29T17:22:49.708Z,11.80
2018-09-29T17:25:16.965Z,11.70
2018-09-29T17:27:44.755Z,11.70
2018-09-29T17:30:11.988Z,11.70
2018-09-29T17:32:39.269Z,11.60
2018-09-29T17:35:06.621Z,11.60
2018-09-29T17:37:33.917Z,11.50
2018-09-29T17:40:02.336Z,11.30
2018-09-29T17:42:29.605Z,11.30
2018-09-29T17:44:56.840Z,11.10
2018-09-29T17:47:24.081Z,11.00
2018-09-29T17:49:51.373Z,10.90
2018-09-29T17:52:19.135Z,10.90
2018-09-29T17:54:46.408Z,10.70
2018-09-29T17:57:13.789Z,10.80
2018-09-29T17:59:42.593Z,10.60
2018-09-29T18:02:12.228Z,10.60
2018-09-29T18:04:39.573Z,10.50
2018-09-29T18:07:06.820Z,10.50
2018-09-29T18:09:34.037Z,10.50
2018-09-29T18:12:02.319Z,10.60
2018-09-29T18:14:29.544Z,10.40
2018-09-29T18:16:56.823Z,10.30
2018-09-29T18:19:24.261Z,10.20
2018-09-29T18:21:51.581Z,10.10
2018-09-29T18:24:18.779Z,10.00
2018-09-29T18:26:46.008Z,10.00
2018-09-29T18:29:13.359Z,10.10
2018-09-29T18:31:40.568Z,9.90
2018-09-29T18:34:07.977Z,10.00
2018-09-29T18:36:35.220Z,9.90
2018-09-29T18:39:02.544Z,9.90
2018-09-29T18:41:29.788Z,9.90
2018-09-29T18:43:57.008Z,9.80
2018-09-29T18:46:24.237Z,9.80
2018-09-29T18:48:51.692Z,9.80
2018-09-29T18:51:19.091Z,9.70
2018-09-29T18:53:46.324Z,9.60
2018-09-29T18:56:13.552Z,9.60
2018-09-29T18:58:40.825Z,9.50
2018-09-29T19:01:08.075Z,9.40
2018-09-29T19:03:35.340Z,9.40
2018-09-29T19:06:02.622Z,9.40
2018-09-29T19:08:30.879Z,9.40
2018-09-29T19:10:58.552Z,9.40
2018-09-29T19:13:25.832Z,9.50
2018-09-29T19:15:53.069Z,9.30
2018-09-29T19:18:20.346Z,9.30
2018-09-29T19:20:47.616Z,9.30
2018-09-29T19:23:14.884Z,9.10
2018-09-29T19:25:42.135Z,9.20
2018-09-29T19:28:09.396Z,9.20
2018-09-29T19:30:36.640Z,9.20
2018-09-29T19:33:03.892Z,9.20
2018-09-29T19:35:32.255Z,9.30
2018-09-29T19:37:59.486Z,9.20
2018-09-29T19:40:26.758Z,9.10
2018-09-29T19:42:53.993Z,9.00
2018-09-29T19:45:21.301Z,9.10
2018-09-29T19:47:48.477Z,9.00
2018-09-29T19:50:15.724Z,9.10
2018-09-29T19:52:42.958Z,9.00
2018-09-29T19:55:10.204Z,8.90
2018-09-29T19:57:37.458Z,8.80
2018-09-29T20:00:04.785Z,8.70
2018-09-29T20:02:32.081Z,8.70
2018-09-29T20:04:59.330Z,8.80
2018-09-29T20:07:26.580Z,8.70
2018-09-29T20:09:53.828Z,8.70
2018-09-29T20:12:22.085Z,8.70
2018-09-29T20:14:49.316Z,8.60
2018-09-29T20:17:16.561Z,8.60
2018-09-29T20:19:43.817Z,8.50
2018-09-29T20:22:11.056Z,8.50
2018-09-29T20:24:38.272Z,8.40
2018-09-29T20:27:06.065Z,8.30
2018-09-29T20:29:34.316Z,8.30
2018-09-29T20:32:01.569Z,8.20
2018-09-29T20:34:28.904Z,8.20
2018-09-29T20:36:56.151Z,8.20
2018-09-29T20:39:23.996Z,8.30
2018-09-29T20:41:51.232Z,8.10
2018-09-29T20:44:18.448Z,8.10
2018-09-29T20:46:45.757Z,8.10
2018-09-29T20:49:12.976Z,8.00
2018-09-29T20:51:40.212Z,8.00
2018-09-29T20:54:07.465Z,7.90
2018-09-29T20:56:34.757Z,7.90
2018-09-29T20:59:02.196Z,7.90
2018-09-29T21:01:29.553Z,7.90
2018-09-29T21:03:56.767Z,7.80
2018-09-29T21:06:24.090Z,7.80
2018-09-29T21:08:51.356Z,7.70
2018-09-29T21:11:18.639Z,7.70
2018-09-29T21:13:45.954Z,7.60
2018-09-29T21:16:13.120Z,7.50
2018-09-29T21:18:40.357Z,7.50
2018-09-29T21:21:07.603Z,7.40
2018-09-29T21:23:34.820Z,7.30
2018-09-29T21:26:02.608Z,7.30
2018-09-29T21:28:30.080Z,7.30
2018-09-29T21:30:57.296Z,7.20
2018-09-29T21:33:24.549Z,7.20
2018-09-29T21:35:51.797Z,7.20
2018-09-29T21:38:19.060Z,7.10
2018-09-29T21:40:46.316Z,7.10
2018-09-29T21:43:13.572Z,7.10
2018-09-29T21:45:40.825Z,7.10
2018-09-29T21:48:08.059Z,7.00
2018-09-29T21:50:35.431Z,7.00
2018-09-29T21:53:02.662Z,6.90
2018-09-29T21:55:29.901Z,6.90
2018-09-29T21:57:57.147Z,6.70
2018-09-29T22:00:30.264Z,6.70
2018-09-29T22:02:57.547Z,6.50
2018-09-29T22:05:24.776Z,6.30
2018-09-29T22:07:52.036Z,6.30
2018-09-29T22:10:19.277Z,6.30
2018-09-29T22:12:46.512Z,6.30
2018-09-29T22:15:14.028Z,6.30
2018-09-29T22:17:41.295Z,6.30
2018-09-29T22:20:08.576Z,6.40
2018-09-29T22:22:35.829Z,6.30
2018-09-29T22:25:03.237Z,6.40
2018-09-29T22:27:30.497Z,6.30
2018-09-29T22:29:57.736Z,6.30
2018-09-29T22:32:25.001Z,6.30
2018-09-29T22:34:52.269Z,6.10
2018-09-29T22:37:19.505Z,6.20
2018-09-29T22:39:46.720Z,6.20
2018-09-29T22:42:14.007Z,6.10
2018-09-29T22:44:41.276Z,6.20
2018-09-29T22:47:08.540Z,6.20
2018-09-29T22:49:36.381Z,6.20
2018-09-29T22:52:03.621Z,6.20
2018-09-29T22:54:31.420Z,6.20
2018-09-29T22:56:58.668Z,6.20
2018-09-29T22:59:26.912Z,6.20
2018-09-29T23:01:54.152Z,6.20
2018-09-29T23:04:21.389Z,6.10
2018-09-29T23:06:48.601Z,6.20
2018-09-29T23:09:15.837Z,6.10
2018-09-29T23:11:43.092Z,6.10
2018-09-29T23:14:10.428Z,6.20
2018-09-29T23:16:37.660Z,6.20
2018-09-29T23:19:05.010Z,6.10
2018-09-29T23:21:32.188Z,6.20
2018-09-29T23:23:59.745Z,6.10
2018-09-29T23:26:28.056Z,6.10
2018-09-29T23:28:55.486Z,6.20
2018-09-29T23:31:22.720Z,6.20
2018-09-29T23:33:49.941Z,6.20
2018-09-29T23:36:17.181Z,6.20
2018-09-29T23:38:44.420Z,6.20
2018-09-29T23:41:11.657Z,6.20
2018-09-29T23:43:38.865Z,6.10
2018-09-29T23:46:07.269Z,6.10
2018-09-29T23:48:34.496Z,6.10
2018-09-29T23:51:01.767Z,6.10
2018-09-29T23:53:29.148Z,5.90
2018-09-29T23:55:56.375Z,5.80
2018-09-29T23:58:24.604Z,5.70
